DAL6299 KLGA-KDCA
Flight info
| Callsign | DAL6299 |
|---|---|
| Flight time | 0h 41m |
| Altitude | 22000 |
| Route | BIGGY Q75 MXE CLIPR3 |
| Aircraft | B738/M-SDE2E3FGHIRWXY/LB1 |
Departure
| Time | 2026-05-04 23:19 |
|---|---|
| Airport | LaGuardia Airport (KLGA) |
Arrival
| Time | 2026-05-05 00:01 |
|---|---|
| Airport | Ronald Reagan Washington National Airport (KDCA) |
| Time | Latitude | Longitude | Altitude | Speed | Heading |
|---|---|---|---|---|---|
| 2026-05-04 22:50 | 40.77090 | -73.86267 | 12 ft | 0 kts | 291° |
| 2026-05-04 23:06 | 40.77090 | -73.86266 | 11 ft | 1 kts | 292° |
| 2026-05-04 23:07 | 40.77084 | -73.86249 | 11 ft | 2 kts | 291° |
| 2026-05-04 23:07 | 40.77079 | -73.86231 | 11 ft | 2 kts | 307° |
| 2026-05-04 23:07 | 40.77066 | -73.86220 | 11 ft | 2 kts | 350° |
| 2026-05-04 23:07 | 40.77052 | -73.86222 | 11 ft | 1 kts | 29° |
| 2026-05-04 23:08 | 40.77047 | -73.86227 | 12 ft | 1 kts | 42° |
| 2026-05-04 23:08 | 40.77044 | -73.86231 | 12 ft | 0 kts | 39° |
| 2026-05-04 23:12 | 40.77055 | -73.86218 | 11 ft | 3 kts | 40° |
| 2026-05-04 23:12 | 40.77084 | -73.86183 | 11 ft | 7 kts | 44° |
| 2026-05-04 23:12 | 40.77124 | -73.86144 | 10 ft | 6 kts | 2° |
| 2026-05-04 23:12 | 40.77164 | -73.86154 | 9 ft | 5 kts | 1° |
| 2026-05-04 23:13 | 40.77205 | -73.86137 | 9 ft | 7 kts | 24° |
| 2026-05-04 23:13 | 40.77251 | -73.86107 | 9 ft | 7 kts | 17° |
| 2026-05-04 23:13 | 40.77298 | -73.86141 | 9 ft | 9 kts | 303° |
| 2026-05-04 23:13 | 40.77334 | -73.86217 | 9 ft | 10 kts | 301° |
| 2026-05-04 23:14 | 40.77373 | -73.86299 | 9 ft | 10 kts | 302° |
| 2026-05-04 23:14 | 40.77413 | -73.86383 | 9 ft | 10 kts | 302° |
| 2026-05-04 23:14 | 40.77453 | -73.86466 | 9 ft | 10 kts | 302° |
| 2026-05-04 23:14 | 40.77493 | -73.86547 | 10 ft | 10 kts | 302° |
| 2026-05-04 23:15 | 40.77536 | -73.86637 | 11 ft | 14 kts | 302° |
| 2026-05-04 23:15 | 40.77580 | -73.86731 | 11 ft | 9 kts | 302° |
| 2026-05-04 23:15 | 40.77613 | -73.86798 | 10 ft | 8 kts | 302° |
| 2026-05-04 23:15 | 40.77650 | -73.86877 | 10 ft | 11 kts | 302° |
| 2026-05-04 23:16 | 40.77694 | -73.86969 | 12 ft | 12 kts | 302° |
| 2026-05-04 23:16 | 40.77741 | -73.87067 | 12 ft | 12 kts | 303° |
| 2026-05-04 23:16 | 40.77789 | -73.87168 | 13 ft | 13 kts | 302° |
| 2026-05-04 23:16 | 40.77839 | -73.87273 | 13 ft | 13 kts | 302° |
| 2026-05-04 23:17 | 40.77891 | -73.87381 | 13 ft | 13 kts | 301° |
| 2026-05-04 23:17 | 40.77940 | -73.87485 | 13 ft | 13 kts | 302° |
| 2026-05-04 23:17 | 40.77989 | -73.87584 | 13 ft | 12 kts | 302° |
| 2026-05-04 23:17 | 40.78036 | -73.87683 | 13 ft | 12 kts | 301° |
| 2026-05-04 23:18 | 40.78080 | -73.87776 | 13 ft | 11 kts | 302° |
| 2026-05-04 23:18 | 40.78125 | -73.87847 | 13 ft | 9 kts | 328° |
| 2026-05-04 23:18 | 40.78190 | -73.87845 | 12 ft | 10 kts | 48° |
| 2026-05-04 23:18 | 40.78172 | -73.87734 | 12 ft | 30 kts | 122° |
| 2026-05-04 23:19 | 40.77905 | -73.87175 | 11 ft | 113 kts | 123° |
| 2026-05-04 23:19 | 40.77354 | -73.86025 | 119 ft | 172 kts | 125° |
| 2026-05-04 23:19 | 40.76631 | -73.84802 | 1000 ft | 172 kts | 141° |
| 2026-05-04 23:19 | 40.75601 | -73.84126 | 1970 ft | 169 kts | 171° |
| 2026-05-04 23:20 | 40.74433 | -73.84183 | 2638 ft | 178 kts | 197° |
| 2026-05-04 23:20 | 40.73282 | -73.84950 | 3137 ft | 197 kts | 217° |
| 2026-05-04 23:20 | 40.72144 | -73.86181 | 3504 ft | 227 kts | 224° |
| 2026-05-04 23:20 | 40.70964 | -73.87603 | 4369 ft | 238 kts | 225° |
| 2026-05-04 23:21 | 40.69735 | -73.89104 | 5225 ft | 250 kts | 228° |
| 2026-05-04 23:21 | 40.68838 | -73.91033 | 6203 ft | 253 kts | 251° |
| 2026-05-04 23:21 | 40.68384 | -73.93247 | 7250 ft | 256 kts | 259° |
| 2026-05-04 23:21 | 40.68010 | -73.95549 | 8181 ft | 263 kts | 257° |
| 2026-05-04 23:22 | 40.67531 | -73.97851 | 9192 ft | 266 kts | 253° |
| 2026-05-04 23:22 | 40.66965 | -74.00176 | 10168 ft | 269 kts | 254° |
| 2026-05-04 23:22 | 40.66383 | -74.02566 | 10727 ft | 288 kts | 254° |
| 2026-05-04 23:22 | 40.65712 | -74.05217 | 11079 ft | 315 kts | 254° |
| 2026-05-04 23:23 | 40.65053 | -74.08003 | 11737 ft | 327 kts | 261° |
| 2026-05-04 23:23 | 40.65046 | -74.10963 | 12654 ft | 329 kts | 283° |
| 2026-05-04 23:23 | 40.65889 | -74.13775 | 13609 ft | 333 kts | 300° |
| 2026-05-04 23:23 | 40.67225 | -74.16257 | 14558 ft | 338 kts | 306° |
| 2026-05-04 23:24 | 40.68669 | -74.18690 | 15063 ft | 347 kts | 307° |
| 2026-05-04 23:24 | 40.70183 | -74.21179 | 15054 ft | 341 kts | 307° |
| 2026-05-04 23:24 | 40.71637 | -74.23586 | 15089 ft | 339 kts | 307° |
| 2026-05-04 23:24 | 40.73094 | -74.26041 | 15071 ft | 340 kts | 303° |
| 2026-05-04 23:25 | 40.74055 | -74.28858 | 15070 ft | 340 kts | 284° |
| 2026-05-04 23:25 | 40.74177 | -74.31979 | 15092 ft | 343 kts | 265° |
| 2026-05-04 23:25 | 40.73666 | -74.35066 | 15088 ft | 348 kts | 254° |
| 2026-05-04 23:25 | 40.72571 | -74.37972 | 15571 ft | 361 kts | 242° |
| 2026-05-04 23:26 | 40.71194 | -74.40736 | 16609 ft | 363 kts | 240° |
| 2026-05-04 23:26 | 40.69752 | -74.43490 | 16968 ft | 370 kts | 240° |
| 2026-05-04 23:26 | 40.68314 | -74.46247 | 16983 ft | 364 kts | 240° |
| 2026-05-04 23:26 | 40.66889 | -74.49009 | 17103 ft | 372 kts | 240° |
| 2026-05-04 23:27 | 40.65435 | -74.51826 | 18116 ft | 371 kts | 240° |
| 2026-05-04 23:27 | 40.63971 | -74.54651 | 18881 ft | 377 kts | 240° |
| 2026-05-04 23:27 | 40.62498 | -74.57509 | 19591 ft | 383 kts | 241° |
| 2026-05-04 23:27 | 40.61010 | -74.60437 | 20347 ft | 388 kts | 240° |
| 2026-05-04 23:28 | 40.59497 | -74.63377 | 21010 ft | 395 kts | 240° |
| 2026-05-04 23:28 | 40.57960 | -74.66361 | 21678 ft | 399 kts | 240° |
| 2026-05-04 23:28 | 40.56388 | -74.69411 | 21868 ft | 407 kts | 240° |
| 2026-05-04 23:28 | 40.54771 | -74.72554 | 21868 ft | 419 kts | 240° |
| 2026-05-04 23:29 | 40.53135 | -74.75723 | 21870 ft | 424 kts | 240° |
| 2026-05-04 23:29 | 40.51488 | -74.78908 | 21872 ft | 424 kts | 240° |
| 2026-05-04 23:29 | 40.49825 | -74.82119 | 21876 ft | 422 kts | 240° |
| 2026-05-04 23:29 | 40.48187 | -74.85281 | 21879 ft | 421 kts | 240° |
| 2026-05-04 23:30 | 40.46528 | -74.88480 | 21881 ft | 421 kts | 240° |
| 2026-05-04 23:30 | 40.44886 | -74.91644 | 21882 ft | 422 kts | 240° |
| 2026-05-04 23:30 | 40.43210 | -74.94785 | 21883 ft | 423 kts | 239° |
| 2026-05-04 23:30 | 40.41389 | -74.97809 | 21883 ft | 426 kts | 233° |
| 2026-05-04 23:31 | 40.39409 | -75.00713 | 21889 ft | 428 kts | 232° |
| 2026-05-04 23:31 | 40.37397 | -75.03587 | 21888 ft | 427 kts | 231° |
| 2026-05-04 23:31 | 40.35374 | -75.06457 | 21889 ft | 427 kts | 231° |
| 2026-05-04 23:31 | 40.33359 | -75.09303 | 21890 ft | 427 kts | 231° |
| 2026-05-04 23:32 | 40.31358 | -75.12125 | 21890 ft | 427 kts | 231° |
| 2026-05-04 23:32 | 40.29322 | -75.14986 | 21891 ft | 427 kts | 231° |
| 2026-05-04 23:32 | 40.27311 | -75.17808 | 21893 ft | 427 kts | 231° |
| 2026-05-04 23:32 | 40.25286 | -75.20644 | 21896 ft | 427 kts | 231° |
| 2026-05-04 23:33 | 40.23277 | -75.23454 | 21900 ft | 427 kts | 231° |
| 2026-05-04 23:33 | 40.21236 | -75.26305 | 21903 ft | 426 kts | 231° |
| 2026-05-04 23:33 | 40.19225 | -75.29110 | 21904 ft | 425 kts | 231° |
| 2026-05-04 23:33 | 40.17201 | -75.31930 | 21907 ft | 425 kts | 231° |
| 2026-05-04 23:34 | 40.15188 | -75.34733 | 21907 ft | 426 kts | 231° |
| 2026-05-04 23:34 | 40.13157 | -75.37558 | 21907 ft | 426 kts | 231° |
| 2026-05-04 23:34 | 40.11153 | -75.40340 | 21908 ft | 425 kts | 231° |
| 2026-05-04 23:34 | 40.09129 | -75.43150 | 21908 ft | 425 kts | 231° |
| 2026-05-04 23:35 | 40.07096 | -75.45969 | 21908 ft | 425 kts | 231° |
| 2026-05-04 23:35 | 40.05072 | -75.48771 | 21908 ft | 425 kts | 231° |
| 2026-05-04 23:35 | 40.03055 | -75.51564 | 21909 ft | 426 kts | 231° |
| 2026-05-04 23:35 | 40.01035 | -75.54357 | 21908 ft | 426 kts | 231° |
| 2026-05-04 23:36 | 39.99003 | -75.57162 | 21906 ft | 425 kts | 231° |
| 2026-05-04 23:36 | 39.96974 | -75.59963 | 21908 ft | 425 kts | 231° |
| 2026-05-04 23:36 | 39.94949 | -75.62760 | 21911 ft | 425 kts | 232° |
| 2026-05-04 23:36 | 39.92991 | -75.65606 | 21909 ft | 423 kts | 234° |
| 2026-05-04 23:37 | 39.91178 | -75.68664 | 21911 ft | 421 kts | 238° |
| 2026-05-04 23:37 | 39.89513 | -75.71723 | 21910 ft | 420 kts | 239° |
| 2026-05-04 23:37 | 39.87846 | -75.74854 | 21910 ft | 420 kts | 239° |
| 2026-05-04 23:37 | 39.86181 | -75.78004 | 21910 ft | 420 kts | 240° |
| 2026-05-04 23:38 | 39.84529 | -75.81141 | 21910 ft | 420 kts | 240° |
| 2026-05-04 23:38 | 39.82886 | -75.84266 | 21910 ft | 420 kts | 240° |
| 2026-05-04 23:38 | 39.81260 | -75.87362 | 21910 ft | 420 kts | 240° |
| 2026-05-04 23:38 | 39.79613 | -75.90498 | 21908 ft | 420 kts | 240° |
| 2026-05-04 23:39 | 39.77965 | -75.93639 | 21908 ft | 420 kts | 240° |
| 2026-05-04 23:39 | 39.76324 | -75.96763 | 21907 ft | 420 kts | 240° |
| 2026-05-04 23:39 | 39.74672 | -75.99908 | 21907 ft | 420 kts | 240° |
| 2026-05-04 23:39 | 39.73059 | -76.02972 | 21700 ft | 407 kts | 240° |
| 2026-05-04 23:40 | 39.71482 | -76.05960 | 21027 ft | 396 kts | 240° |
| 2026-05-04 23:40 | 39.69944 | -76.08877 | 20375 ft | 385 kts | 240° |
| 2026-05-04 23:40 | 39.68464 | -76.11684 | 19773 ft | 374 kts | 240° |
| 2026-05-04 23:40 | 39.67025 | -76.14411 | 19193 ft | 367 kts | 240° |
| 2026-05-04 23:41 | 39.65575 | -76.17167 | 18615 ft | 372 kts | 240° |
| 2026-05-04 23:41 | 39.64130 | -76.19906 | 18002 ft | 362 kts | 240° |
| 2026-05-04 23:41 | 39.62719 | -76.22578 | 17467 ft | 360 kts | 240° |
| 2026-05-04 23:41 | 39.61308 | -76.25246 | 16970 ft | 362 kts | 239° |
| 2026-05-04 23:42 | 39.59799 | -76.27816 | 16358 ft | 355 kts | 234° |
| 2026-05-04 23:42 | 39.58134 | -76.30120 | 15805 ft | 356 kts | 228° |
| 2026-05-04 23:42 | 39.56195 | -76.32184 | 15235 ft | 359 kts | 221° |
| 2026-05-04 23:42 | 39.54205 | -76.34000 | 14655 ft | 350 kts | 219° |
| 2026-05-04 23:43 | 39.52178 | -76.35783 | 14104 ft | 353 kts | 219° |
| 2026-05-04 23:43 | 39.50171 | -76.37533 | 13534 ft | 347 kts | 219° |
| 2026-05-04 23:43 | 39.48204 | -76.39239 | 12983 ft | 342 kts | 219° |
| 2026-05-04 23:43 | 39.46227 | -76.40962 | 12430 ft | 343 kts | 219° |
| 2026-05-04 23:44 | 39.44278 | -76.42651 | 12038 ft | 339 kts | 219° |
| 2026-05-04 23:44 | 39.42302 | -76.44370 | 12027 ft | 343 kts | 219° |
| 2026-05-04 23:44 | 39.40316 | -76.46093 | 12016 ft | 344 kts | 219° |
| 2026-05-04 23:44 | 39.38356 | -76.47791 | 12023 ft | 343 kts | 219° |
| 2026-05-04 23:45 | 39.36361 | -76.49520 | 12022 ft | 343 kts | 219° |
| 2026-05-04 23:45 | 39.34390 | -76.51225 | 12024 ft | 343 kts | 219° |
| 2026-05-04 23:45 | 39.32415 | -76.52934 | 12022 ft | 344 kts | 219° |
| 2026-05-04 23:45 | 39.30441 | -76.54636 | 11923 ft | 334 kts | 219° |
| 2026-05-04 23:46 | 39.28517 | -76.56297 | 11497 ft | 339 kts | 219° |
| 2026-05-04 23:46 | 39.26576 | -76.57970 | 10909 ft | 334 kts | 218° |
| 2026-05-04 23:46 | 39.24686 | -76.59593 | 10492 ft | 319 kts | 218° |
| 2026-05-04 23:46 | 39.22892 | -76.61134 | 10363 ft | 297 kts | 218° |
| 2026-05-04 23:47 | 39.21178 | -76.62609 | 10288 ft | 300 kts | 218° |
| 2026-05-04 23:47 | 39.19494 | -76.64062 | 10148 ft | 284 kts | 218° |
| 2026-05-04 23:47 | 39.17911 | -76.65424 | 10060 ft | 264 kts | 219° |
| 2026-05-04 23:47 | 39.16494 | -76.66894 | 10028 ft | 266 kts | 225° |
| 2026-05-04 23:48 | 39.15105 | -76.68507 | 10006 ft | 268 kts | 226° |
| 2026-05-04 23:48 | 39.13738 | -76.70119 | 10010 ft | 267 kts | 226° |
| 2026-05-04 23:48 | 39.12407 | -76.71698 | 10014 ft | 267 kts | 226° |
| 2026-05-04 23:48 | 39.11006 | -76.73356 | 10019 ft | 267 kts | 226° |
| 2026-05-04 23:49 | 39.09639 | -76.74976 | 10024 ft | 267 kts | 226° |
| 2026-05-04 23:49 | 39.08280 | -76.76585 | 10027 ft | 266 kts | 226° |
| 2026-05-04 23:49 | 39.06918 | -76.78201 | 10025 ft | 266 kts | 226° |
| 2026-05-04 23:49 | 39.05563 | -76.79802 | 10026 ft | 266 kts | 226° |
| 2026-05-04 23:50 | 39.04207 | -76.81404 | 10025 ft | 266 kts | 226° |
| 2026-05-04 23:50 | 39.02832 | -76.83028 | 10025 ft | 267 kts | 226° |
| 2026-05-04 23:50 | 39.01483 | -76.84624 | 10023 ft | 267 kts | 226° |
| 2026-05-04 23:50 | 39.00096 | -76.86263 | 10019 ft | 267 kts | 226° |
| 2026-05-04 23:51 | 38.98763 | -76.87897 | 10015 ft | 266 kts | 232° |
| 2026-05-04 23:51 | 38.97731 | -76.89816 | 10016 ft | 261 kts | 248° |
| 2026-05-04 23:51 | 38.97242 | -76.92040 | 10020 ft | 258 kts | 265° |
| 2026-05-04 23:51 | 38.97201 | -76.94378 | 9789 ft | 262 kts | 273° |
| 2026-05-04 23:52 | 38.97329 | -76.96687 | 9400 ft | 257 kts | 274° |
| 2026-05-04 23:52 | 38.97463 | -76.98953 | 9026 ft | 256 kts | 273° |
| 2026-05-04 23:52 | 38.97663 | -77.01231 | 8641 ft | 256 kts | 282° |
| 2026-05-04 23:52 | 38.98314 | -77.03336 | 8262 ft | 255 kts | 301° |
| 2026-05-04 23:53 | 38.99432 | -77.05040 | 7879 ft | 251 kts | 312° |
| 2026-05-04 23:53 | 39.00692 | -77.06552 | 7471 ft | 246 kts | 314° |
| 2026-05-04 23:53 | 39.01949 | -77.08006 | 7022 ft | 241 kts | 314° |
| 2026-05-04 23:53 | 39.03166 | -77.09437 | 6575 ft | 235 kts | 313° |
| 2026-05-04 23:54 | 39.04340 | -77.10866 | 6110 ft | 230 kts | 312° |
| 2026-05-04 23:54 | 39.05473 | -77.12274 | 5651 ft | 226 kts | 312° |
| 2026-05-04 23:54 | 39.06500 | -77.13744 | 5201 ft | 217 kts | 294° |
| 2026-05-04 23:54 | 39.06756 | -77.15573 | 4945 ft | 204 kts | 262° |
| 2026-05-04 23:55 | 39.06343 | -77.17276 | 4744 ft | 201 kts | 244° |
| 2026-05-04 23:55 | 39.05518 | -77.18720 | 4481 ft | 202 kts | 225° |
| 2026-05-04 23:55 | 39.02894 | -77.19801 | 3671 ft | 212 kts | 174° |
| 2026-05-04 23:56 | 39.01539 | -77.19164 | 3346 ft | 204 kts | 156° |
| 2026-05-04 23:56 | 39.00373 | -77.18233 | 3114 ft | 195 kts | 150° |
| 2026-05-04 23:56 | 38.99260 | -77.17236 | 2922 ft | 193 kts | 149° |
| 2026-05-04 23:56 | 38.98170 | -77.16255 | 2743 ft | 192 kts | 149° |
| 2026-05-04 23:57 | 38.97078 | -77.15282 | 2563 ft | 191 kts | 149° |
| 2026-05-04 23:57 | 38.95990 | -77.14317 | 2369 ft | 188 kts | 149° |
| 2026-05-04 23:57 | 38.94923 | -77.13372 | 2114 ft | 182 kts | 149° |
| 2026-05-04 23:57 | 38.93939 | -77.12495 | 1825 ft | 161 kts | 150° |
| 2026-05-04 23:58 | 38.93056 | -77.11713 | 1621 ft | 152 kts | 150° |
| 2026-05-04 23:58 | 38.92193 | -77.10953 | 1428 ft | 148 kts | 150° |
| 2026-05-04 23:58 | 38.91389 | -77.10178 | 1328 ft | 144 kts | 140° |
| 2026-05-04 23:58 | 38.90813 | -77.09102 | 1237 ft | 149 kts | 122° |
| 2026-05-04 23:59 | 38.90382 | -77.07881 | 1133 ft | 151 kts | 117° |
| 2026-05-04 23:59 | 38.89897 | -77.06699 | 1001 ft | 148 kts | 129° |
| 2026-05-04 23:59 | 38.89230 | -77.05722 | 825 ft | 144 kts | 139° |
| 2026-05-04 23:59 | 38.88522 | -77.04819 | 617 ft | 142 kts | 141° |
| 2026-05-05 00:00 | 38.87742 | -77.04095 | 425 ft | 136 kts | 161° |
| 2026-05-05 00:00 | 38.87453 | -77.03978 | 357 ft | 135 kts | 171° |
| 2026-05-05 00:00 | 38.85894 | -77.03842 | 34 ft | 136 kts | 178° |
| 2026-05-05 00:00 | 38.85085 | -77.03768 | 19 ft | 79 kts | 175° |
| 2026-05-05 00:01 | 38.84824 | -77.03741 | 19 ft | 21 kts | 178° |
| 2026-05-05 00:01 | 38.84724 | -77.03784 | 19 ft | 10 kts | 231° |
| 2026-05-05 00:01 | 38.84716 | -77.03840 | 19 ft | 5 kts | 282° |
| 2026-05-05 00:01 | 38.84731 | -77.03895 | 20 ft | 6 kts | 298° |
| 2026-05-05 00:02 | 38.84770 | -77.03935 | 21 ft | 8 kts | 342° |
| 2026-05-05 00:02 | 38.84839 | -77.03945 | 21 ft | 10 kts | 356° |
| 2026-05-05 00:02 | 38.84910 | -77.03952 | 21 ft | 10 kts | 355° |
| 2026-05-05 00:02 | 38.84980 | -77.03960 | 22 ft | 10 kts | 355° |
| 2026-05-05 00:03 | 38.85052 | -77.03965 | 22 ft | 10 kts | 356° |
| 2026-05-05 00:03 | 38.85128 | -77.03973 | 22 ft | 10 kts | 354° |
| 2026-05-05 00:03 | 38.85202 | -77.03982 | 22 ft | 10 kts | 355° |
| 2026-05-05 00:03 | 38.85276 | -77.03989 | 22 ft | 10 kts | 353° |
| 2026-05-05 00:04 | 38.85320 | -77.04040 | 23 ft | 6 kts | 281° |
| 2026-05-05 00:04 | 38.85318 | -77.04096 | 24 ft | 6 kts | 258° |
| 2026-05-05 00:04 | 38.85306 | -77.04147 | 25 ft | 5 kts | 250° |
| 2026-05-05 00:04 | 38.85280 | -77.04170 | 26 ft | 5 kts | 180° |
| 2026-05-05 00:05 | 38.85251 | -77.04160 | 26 ft | 1 kts | 161° |
| 2026-05-05 00:05 | 38.85247 | -77.04158 | 25 ft | 0 kts | 162° |